Ilona — ZCTE3 — position and weather

sailwx.info

Track history (hours):
 
Tides and Currents Weather Stations Pressure Air Temp Water Temp Dewpoint Dewpoint Depression Visibility Wind Speed Wind Dir Waves Ship Positions

Ilona

Last reported at 2014-Aug-01 11:23 UTC. Time now 2014-Aug-01 11:58 UTC.
Position N 43°43' E 007°25'.

Length 37 m.

Type: Pleasure craft. MMSI: 319864000.

Date/timePositionNaut miles runAvg speedWind from/ knotsBaromVisibWave heightAir tempDewpointWater temp
2014-Aug-01 11:23N 43°43' E 007°25'0 0.0
2014-Aug-01 10:29N 43°43' E 007°25'0 0.0
2014-Aug-01 09:29N 43°43' E 007°25'0 0.0
2014-Aug-01 08:29N 43°43' E 007°25'0 0.0
2014-Aug-01 07:23N 43°43' E 007°25'0 0.0
2014-Aug-01 06:29N 43°43' E 007°25'0 0.0
2014-Aug-01 05:29N 43°43' E 007°25'0 0.0
2014-Aug-01 04:17N 43°43' E 007°25'0 0.0
2014-Aug-01 03:29N 43°43' E 007°25'0 0.0
2014-Aug-01 02:17N 43°43' E 007°25'0 0.0
2014-Aug-01 00:23N 43°43' E 007°25'0 0.0
2014-Jul-31 23:29N 43°43' E 007°25'0 0.0
2014-Jul-31 22:29N 43°43' E 007°25'0 0.0
2014-Jul-31 21:29N 43°43' E 007°25'0 0.0
2014-Jul-31 20:29N 43°43' E 007°25'0 0.0
2014-Jul-31 19:23N 43°43' E 007°25'0 0.0
2014-Jul-31 18:23N 43°43' E 007°25'0 0.0
2014-Jul-31 17:17N 43°43' E 007°25'0 0.0
2014-Jul-31 16:05N 43°43' E 007°25'0 0.0
2014-Jul-31 15:17N 43°43' E 007°25'0 0.0
2014-Jul-31 14:29N 43°43' E 007°25'0 0.0
2014-Jul-31 13:29N 43°43' E 007°25'0 0.0
2014-Jul-31 12:29N 43°43' E 007°25'0 0.0
2014-Jul-31 11:23N 43°43' E 007°25'0 0.0
2014-Jul-31 10:29N 43°43' E 007°25'0 0.0
2014-Jul-31 09:32N 43°43' E 007°25'0 0.0
2014-Jul-31 08:29N 43°43' E 007°25'0 0.0
2014-Jul-31 07:32N 43°43' E 007°25'0 0.0
2014-Jul-31 06:05N 43°43' E 007°25'0 0.0
2014-Jul-30 22:08N 43°43' E 007°25'0 0.0
2014-Jul-30 21:17N 43°43' E 007°25'0 0.0
2014-Jul-30 19:28N 43°43' E 007°25'4 3.8
2014-Jul-30 18:30N 43°45' E 007°29'4 0.5
2014-Jul-30 10:24N 43°43' E 007°25'0 0.0
2014-Jul-30 09:30N 43°43' E 007°25'0 0.0
2014-Jul-30 08:30N 43°43' E 007°25'0 0.0
2014-Jul-30 07:24N 43°43' E 007°25'0 0.0
2014-Jul-30 05:24N 43°43' E 007°25'0 0.0
2014-Jul-30 04:30N 43°43' E 007°25'0 0.0
2014-Jul-30 00:12N 43°43' E 007°25'0 0.0
2014-Jul-29 23:24N 43°43' E 007°25'0 0.0
2014-Jul-29 22:30N 43°43' E 007°25'0 0.0
2014-Jul-29 19:24N 43°43' E 007°25'0 0.0
2014-Jul-29 18:24N 43°43' E 007°25'0 0.0
2014-Jul-29 17:12N 43°43' E 007°25'0 0.0
2014-Jul-29 16:24N 43°43' E 007°25'0 0.0
2014-Jul-29 14:18N 43°43' E 007°25'0 0.0
2014-Jul-29 12:24N 43°43' E 007°25'0 0.0
2014-Jul-29 04:30N 43°43' E 007°25'0 0.0
2014-Jul-29 03:24N 43°43' E 007°25'0 0.0
2014-Jul-29 01:12N 43°43' E 007°25'0 0.0
2014-Jul-29 00:30N 43°43' E 007°25'0 0.0
2014-Jul-28 23:18N 43°43' E 007°25'0 0.0
2014-Jul-28 22:30N 43°43' E 007°25'0 0.0
2014-Jul-28 21:30N 43°43' E 007°25'0 0.0
2014-Jul-28 20:30N 43°43' E 007°25'0 0.0
2014-Jul-28 19:24N 43°43' E 007°25'0 0.0
2014-Jul-28 18:24N 43°43' E 007°25'0 0.0
2014-Jul-28 17:31N 43°43' E 007°25'0 0.0
2014-Jul-28 09:14N 43°43' E 007°25'0 0.0
2014-Jul-28 08:20N 43°43' E 007°25'0 0.0
2014-Jul-28 07:26N 43°43' E 007°25'0 0.0
2014-Jul-28 01:08N 43°43' E 007°25'0 0.0
2014-Jul-28 00:26N 43°43' E 007°25'0 0.0
2014-Jul-27 23:20N 43°43' E 007°25'0 0.0
2014-Jul-27 22:32N 43°43' E 007°25'0 0.0
2014-Jul-27 21:32N 43°43' E 007°25'0 0.0
2014-Jul-27 20:32N 43°43' E 007°25'0 0.0
2014-Jul-27 19:32N 43°43' E 007°25'6 6.6
2014-Jul-27 18:33N 43°39' E 007°19'1414.2
2014-Jul-27 17:33N 43°32' E 007°02'1 1.4
2014-Jul-27 16:33N 43°31' E 007°03'0 0.0
2014-Jul-27 12:11N 43°31' E 007°04'0 0.0
2014-Jul-27 10:23N 43°31' E 007°04'0 0.0
2014-Jul-27 06:34N 43°31' E 007°03'2 2.1
2014-Jul-27 05:23N 43°33' E 007°01'0 0.0
2014-Jul-27 03:23N 43°33' E 007°01'0 0.0
2014-Jul-27 02:11N 43°33' E 007°01'0 0.0
2014-Jul-27 00:05N 43°33' E 007°01'0 0.0
2014-Jul-26 23:29N 43°33' E 007°01'0 0.0
2014-Jul-26 22:32N 43°33' E 007°01'0 0.0
2014-Jul-26 21:29N 43°33' E 007°01'0 0.0
2014-Jul-26 20:23N 43°33' E 007°01'1 1.7
2014-Jul-26 19:34N 43°32' E 007°03'1514.5
2014-Jul-26 18:33N 43°41' E 007°18'1 0.8
2014-Jul-26 17:31N 43°42' E 007°19'0 0.0
2014-Jul-26 16:25N 43°42' E 007°19'0 0.0
2014-Jul-26 15:31N 43°42' E 007°19'0 0.0
2014-Jul-26 14:19N 43°42' E 007°19'0 0.0
2014-Jul-26 13:25N 43°42' E 007°19'0 0.0
2014-Jul-26 12:31N 43°42' E 007°19'0 0.0
2014-Jul-26 11:25N 43°42' E 007°19'2 1.9
2014-Jul-26 10:33N 43°41' E 007°21'4 4.2
2014-Jul-26 09:34N 43°43' E 007°25'0 0.0
2014-Jul-26 08:34N 43°43' E 007°25'0 0.0
2014-Jul-26 07:28N 43°43' E 007°25'0 0.0
2014-Jul-26 06:34N 43°43' E 007°25'0 0.0
2014-Jul-26 05:27N 43°43' E 007°25'0 0.0
2014-Jul-26 04:22N 43°43' E 007°25'0 0.0
2014-Jul-26 03:34N 43°43' E 007°25'0 0.0
2014-Jul-26 02:34N 43°43' E 007°25'0 0.0
2014-Jul-26 01:34N 43°43' E 007°25'0 0.0
2014-Jul-26 00:34N 43°43' E 007°25'0 0.0
2014-Jul-25 23:34N 43°43' E 007°25'0 0.0
2014-Jul-25 22:28N 43°43' E 007°25'0 0.0
2014-Jul-25 21:34N 43°43' E 007°25'0 0.0
2014-Jul-25 20:34N 43°43' E 007°25'0 0.0
2014-Jul-25 09:28N 43°43' E 007°25'0 0.0
2014-Jul-25 08:10N 43°43' E 007°25'0 0.0
2014-Jul-25 07:28N 43°43' E 007°25'0 0.0
2014-Jul-25 06:22N 43°43' E 007°25'0 0.0
2014-Jul-25 05:22N 43°43' E 007°25'0 0.0
2014-Jul-25 04:28N 43°43' E 007°25'0 0.0
2014-Jul-25 03:28N 43°43' E 007°25'0 0.0
2014-Jul-25 02:28N 43°43' E 007°25'0 0.0
2014-Jul-25 01:22N 43°43' E 007°25'0 0.0
2014-Jul-25 00:22N 43°43' E 007°25'0 0.0
2014-Jul-24 23:16N 43°43' E 007°25'0 0.0
2014-Jul-24 22:22N 43°43' E 007°25'0 0.0
2014-Jul-24 21:28N 43°43' E 007°25'0 0.0
2014-Jul-24 20:28N 43°43' E 007°25'0 0.0
2014-Jul-24 19:28N 43°43' E 007°25'0 0.0
2014-Jul-24 18:22N 43°43' E 007°25'0 0.0
2014-Jul-24 17:33N 43°43' E 007°25'3 0.5
2014-Jul-24 10:15N 43°45' E 007°29'3 4.4
2014-Jul-24 09:28N 43°43' E 007°25'0 0.0
2014-Jul-24 08:28N 43°43' E 007°25'0 0.0
2014-Jul-24 07:28N 43°43' E 007°25'0 0.0
2014-Jul-24 06:16N 43°43' E 007°25'0 0.0
2014-Jul-24 05:28N 43°43' E 007°25'0 0.0
2014-Jul-24 04:28N 43°43' E 007°25'0 0.0
2014-Jul-24 03:28N 43°43' E 007°25'0 0.0
2014-Jul-24 02:28N 43°43' E 007°25'0 0.0
2014-Jul-24 01:28N 43°43' E 007°25'0 0.0
2014-Jul-24 00:28N 43°43' E 007°25'0 0.0
2014-Jul-23 23:28N 43°43' E 007°25'0 0.0
2014-Jul-23 22:28N 43°43' E 007°25'0 0.0
2014-Jul-23 21:28N 43°43' E 007°25'0 0.0
2014-Jul-23 20:22N 43°43' E 007°25'0 0.0
2014-Jul-23 19:28N 43°43' E 007°25'0 0.2
2014-Jul-23 18:34N 43°43' E 007°25'4 0.4
2014-Jul-23 10:15N 43°45' E 007°29'4 3.5
2014-Jul-23 09:14N 43°43' E 007°25'0 0.0
2014-Jul-23 08:26N 43°43' E 007°25'0 0.0
2014-Jul-23 07:14N 43°43' E 007°25'0 0.0
2014-Jul-23 06:32N 43°43' E 007°25'0 0.0
2014-Jul-22 21:14N 43°43' E 007°25'0 0.0
2014-Jul-22 20:14N 43°43' E 007°25'0 0.0
2014-Jul-22 19:32N 43°43' E 007°25'0 0.2
2014-Jul-22 18:33N 43°43' E 007°25'4 1.7
2014-Jul-22 16:19N 43°45' E 007°29'0 0.0
2014-Jul-22 14:07N 43°45' E 007°29'  
Track history (hours):
 
Tides and Currents Weather Stations Pressure Air Temp Water Temp Dewpoint Dewpoint Depression Visibility Wind Speed Wind Dir Waves Ship Positions

Ilona

Last reported at 2014-Aug-01 11:23 UTC. Time now 2014-Aug-01 11:58 UTC.
Position N 43°43' E 007°25'.

Length 37 m.

Type: Pleasure craft. MMSI: 319864000.

Date/timePositionNaut miles runAvg speedWind from/ knotsBaromVisibWave heightAir tempDewpointWater temp
2014-Aug-01 11:23N 43°43' E 007°25'0 0.0
2014-Aug-01 10:29N 43°43' E 007°25'0 0.0
2014-Aug-01 09:29N 43°43' E 007°25'0 0.0
2014-Aug-01 08:29N 43°43' E 007°25'0 0.0
2014-Aug-01 07:23N 43°43' E 007°25'0 0.0
2014-Aug-01 06:29N 43°43' E 007°25'0 0.0
2014-Aug-01 05:29N 43°43' E 007°25'0 0.0
2014-Aug-01 04:17N 43°43' E 007°25'0 0.0
2014-Aug-01 03:29N 43°43' E 007°25'0 0.0
2014-Aug-01 02:17N 43°43' E 007°25'0 0.0
2014-Aug-01 00:23N 43°43' E 007°25'0 0.0
2014-Jul-31 23:29N 43°43' E 007°25'0 0.0
2014-Jul-31 22:29N 43°43' E 007°25'0 0.0
2014-Jul-31 21:29N 43°43' E 007°25'0 0.0
2014-Jul-31 20:29N 43°43' E 007°25'0 0.0
2014-Jul-31 19:23N 43°43' E 007°25'0 0.0
2014-Jul-31 18:23N 43°43' E 007°25'0 0.0
2014-Jul-31 17:17N 43°43' E 007°25'0 0.0
2014-Jul-31 16:05N 43°43' E 007°25'0 0.0
2014-Jul-31 15:17N 43°43' E 007°25'0 0.0
2014-Jul-31 14:29N 43°43' E 007°25'0 0.0
2014-Jul-31 13:29N 43°43' E 007°25'0 0.0
2014-Jul-31 12:29N 43°43' E 007°25'0 0.0
2014-Jul-31 11:23N 43°43' E 007°25'0 0.0
2014-Jul-31 10:29N 43°43' E 007°25'0 0.0
2014-Jul-31 09:32N 43°43' E 007°25'0 0.0
2014-Jul-31 08:29N 43°43' E 007°25'0 0.0
2014-Jul-31 07:32N 43°43' E 007°25'0 0.0
2014-Jul-31 06:05N 43°43' E 007°25'0 0.0
2014-Jul-30 22:08N 43°43' E 007°25'0 0.0
2014-Jul-30 21:17N 43°43' E 007°25'0 0.0
2014-Jul-30 19:28N 43°43' E 007°25'4 3.8
2014-Jul-30 18:30N 43°45' E 007°29'4 0.5
2014-Jul-30 10:24N 43°43' E 007°25'0 0.0
2014-Jul-30 09:30N 43°43' E 007°25'0 0.0
2014-Jul-30 08:30N 43°43' E 007°25'0 0.0
2014-Jul-30 07:24N 43°43' E 007°25'0 0.0
2014-Jul-30 05:24N 43°43' E 007°25'0 0.0
2014-Jul-30 04:30N 43°43' E 007°25'0 0.0
2014-Jul-30 00:12N 43°43' E 007°25'0 0.0
2014-Jul-29 23:24N 43°43' E 007°25'0 0.0
2014-Jul-29 22:30N 43°43' E 007°25'0 0.0
2014-Jul-29 19:24N 43°43' E 007°25'0 0.0
2014-Jul-29 18:24N 43°43' E 007°25'0 0.0
2014-Jul-29 17:12N 43°43' E 007°25'0 0.0
2014-Jul-29 16:24N 43°43' E 007°25'0 0.0
2014-Jul-29 14:18N 43°43' E 007°25'0 0.0
2014-Jul-29 12:24N 43°43' E 007°25'0 0.0
2014-Jul-29 04:30N 43°43' E 007°25'0 0.0
2014-Jul-29 03:24N 43°43' E 007°25'0 0.0
2014-Jul-29 01:12N 43°43' E 007°25'0 0.0
2014-Jul-29 00:30N 43°43' E 007°25'0 0.0
2014-Jul-28 23:18N 43°43' E 007°25'0 0.0
2014-Jul-28 22:30N 43°43' E 007°25'0 0.0
2014-Jul-28 21:30N 43°43' E 007°25'0 0.0
2014-Jul-28 20:30N 43°43' E 007°25'0 0.0
2014-Jul-28 19:24N 43°43' E 007°25'0 0.0
2014-Jul-28 18:24N 43°43' E 007°25'0 0.0
2014-Jul-28 17:31N 43°43' E 007°25'0 0.0
2014-Jul-28 09:14N 43°43' E 007°25'0 0.0
2014-Jul-28 08:20N 43°43' E 007°25'0 0.0
2014-Jul-28 07:26N 43°43' E 007°25'0 0.0
2014-Jul-28 01:08N 43°43' E 007°25'0 0.0
2014-Jul-28 00:26N 43°43' E 007°25'0 0.0
2014-Jul-27 23:20N 43°43' E 007°25'0 0.0
2014-Jul-27 22:32N 43°43' E 007°25'0 0.0
2014-Jul-27 21:32N 43°43' E 007°25'0 0.0
2014-Jul-27 20:32N 43°43' E 007°25'0 0.0
2014-Jul-27 19:32N 43°43' E 007°25'6 6.6
2014-Jul-27 18:33N 43°39' E 007°19'1414.2
2014-Jul-27 17:33N 43°32' E 007°02'1 1.4
2014-Jul-27 16:33N 43°31' E 007°03'0 0.0
2014-Jul-27 12:11N 43°31' E 007°04'0 0.0
2014-Jul-27 10:23N 43°31' E 007°04'0 0.0
2014-Jul-27 06:34N 43°31' E 007°03'2 2.1
2014-Jul-27 05:23N 43°33' E 007°01'0 0.0
2014-Jul-27 03:23N 43°33' E 007°01'0 0.0
2014-Jul-27 02:11N 43°33' E 007°01'0 0.0
2014-Jul-27 00:05N 43°33' E 007°01'0 0.0
2014-Jul-26 23:29N 43°33' E 007°01'0 0.0
2014-Jul-26 22:32N 43°33' E 007°01'0 0.0
2014-Jul-26 21:29N 43°33' E 007°01'0 0.0
2014-Jul-26 20:23N 43°33' E 007°01'1 1.7
2014-Jul-26 19:34N 43°32' E 007°03'1514.5
2014-Jul-26 18:33N 43°41' E 007°18'1 0.8
2014-Jul-26 17:31N 43°42' E 007°19'0 0.0
2014-Jul-26 16:25N 43°42' E 007°19'0 0.0
2014-Jul-26 15:31N 43°42' E 007°19'0 0.0
2014-Jul-26 14:19N 43°42' E 007°19'0 0.0
2014-Jul-26 13:25N 43°42' E 007°19'0 0.0
2014-Jul-26 12:31N 43°42' E 007°19'0 0.0
2014-Jul-26 11:25N 43°42' E 007°19'2 1.9
2014-Jul-26 10:33N 43°41' E 007°21'4 4.2
2014-Jul-26 09:34N 43°43' E 007°25'0 0.0
2014-Jul-26 08:34N 43°43' E 007°25'0 0.0
2014-Jul-26 07:28N 43°43' E 007°25'0 0.0
2014-Jul-26 06:34N 43°43' E 007°25'0 0.0
2014-Jul-26 05:27N 43°43' E 007°25'0 0.0
2014-Jul-26 04:22N 43°43' E 007°25'0 0.0
2014-Jul-26 03:34N 43°43' E 007°25'0 0.0
2014-Jul-26 02:34N 43°43' E 007°25'0 0.0
2014-Jul-26 01:34N 43°43' E 007°25'0 0.0
2014-Jul-26 00:34N 43°43' E 007°25'0 0.0
2014-Jul-25 23:34N 43°43' E 007°25'0 0.0
2014-Jul-25 22:28N 43°43' E 007°25'0 0.0
2014-Jul-25 21:34N 43°43' E 007°25'0 0.0
2014-Jul-25 20:34N 43°43' E 007°25'0 0.0
2014-Jul-25 09:28N 43°43' E 007°25'0 0.0
2014-Jul-25 08:10N 43°43' E 007°25'0 0.0
2014-Jul-25 07:28N 43°43' E 007°25'0 0.0
2014-Jul-25 06:22N 43°43' E 007°25'0 0.0
2014-Jul-25 05:22N 43°43' E 007°25'0 0.0
2014-Jul-25 04:28N 43°43' E 007°25'0 0.0
2014-Jul-25 03:28N 43°43' E 007°25'0 0.0
2014-Jul-25 02:28N 43°43' E 007°25'0 0.0
2014-Jul-25 01:22N 43°43' E 007°25'0 0.0
2014-Jul-25 00:22N 43°43' E 007°25'0 0.0
2014-Jul-24 23:16N 43°43' E 007°25'0 0.0
2014-Jul-24 22:22N 43°43' E 007°25'0 0.0
2014-Jul-24 21:28N 43°43' E 007°25'0 0.0
2014-Jul-24 20:28N 43°43' E 007°25'0 0.0
2014-Jul-24 19:28N 43°43' E 007°25'0 0.0
2014-Jul-24 18:22N 43°43' E 007°25'0 0.0
2014-Jul-24 17:33N 43°43' E 007°25'3 0.5
2014-Jul-24 10:15N 43°45' E 007°29'3 4.4
2014-Jul-24 09:28N 43°43' E 007°25'0 0.0
2014-Jul-24 08:28N 43°43' E 007°25'0 0.0
2014-Jul-24 07:28N 43°43' E 007°25'0 0.0
2014-Jul-24 06:16N 43°43' E 007°25'0 0.0
2014-Jul-24 05:28N 43°43' E 007°25'0 0.0
2014-Jul-24 04:28N 43°43' E 007°25'0 0.0
2014-Jul-24 03:28N 43°43' E 007°25'0 0.0
2014-Jul-24 02:28N 43°43' E 007°25'0 0.0
2014-Jul-24 01:28N 43°43' E 007°25'0 0.0
2014-Jul-24 00:28N 43°43' E 007°25'0 0.0
2014-Jul-23 23:28N 43°43' E 007°25'0 0.0
2014-Jul-23 22:28N 43°43' E 007°25'0 0.0
2014-Jul-23 21:28N 43°43' E 007°25'0 0.0
2014-Jul-23 20:22N 43°43' E 007°25'0 0.0
2014-Jul-23 19:28N 43°43' E 007°25'0 0.2
2014-Jul-23 18:34N 43°43' E 007°25'4 0.4
2014-Jul-23 10:15N 43°45' E 007°29'4 3.5
2014-Jul-23 09:14N 43°43' E 007°25'0 0.0
2014-Jul-23 08:26N 43°43' E 007°25'0 0.0
2014-Jul-23 07:14N 43°43' E 007°25'0 0.0
2014-Jul-23 06:32N 43°43' E 007°25'0 0.0
2014-Jul-22 21:14N 43°43' E 007°25'0 0.0
2014-Jul-22 20:14N 43°43' E 007°25'0 0.0
2014-Jul-22 19:32N 43°43' E 007°25'0 0.2
2014-Jul-22 18:33N 43°43' E 007°25'4 1.7
2014-Jul-22 16:19N 43°45' E 007°29'0 0.0
2014-Jul-22 14:07N 43°45' E 007°29'  

Dump ship's entire track history